Time;durP1;ratioP1;P1;durP2;ratioP2;P2;SDS_P1;SDS_P2;PMS_P1;PMS_P2;Temp;Humidity;BMP_temperature;BMP_pressure;BME280_temperature;BME280_humidity;BME280_pressure;Samples;Min_cycle;Max_cycle;Signal;HPM_P1;HPM_P2
2022/04/16 00:00:56;;;;;;;8.00;5.50;;;;;;;20.70;35.83;100512.96;1752533;81;20971;-60
2022/04/16 00:03:25;;;;;;;7.60;6.10;;;;;;;20.70;35.83;100510.20;1751428;81;21574;-60
2022/04/16 00:05:53;;;;;;;8.95;6.28;;;;;;;20.70;35.84;100507.44;1752432;81;20933;-60
2022/04/16 00:08:20;;;;;;;8.88;5.53;;;;;;;20.69;35.84;100506.62;1752223;81;21012;-60
2022/04/16 00:10:47;;;;;;;6.92;5.37;;;;;;;20.68;35.84;100502.22;1752327;81;20940;-60
2022/04/16 00:13:14;;;;;;;7.22;5.40;;;;;;;20.68;35.86;100509.13;1752135;81;21807;-60
2022/04/16 00:15:40;;;;;;;8.63;5.35;;;;;;;20.69;35.86;100505.80;1742966;81;21307;-60
2022/04/16 00:18:06;;;;;;;8.18;5.72;;;;;;;20.69;35.84;100500.27;1738827;82;21299;-60
2022/04/16 00:20:34;;;;;;;8.53;5.55;;;;;;;20.68;35.88;100500.02;1739004;82;20941;-60
2022/04/16 00:23:06;;;;;;;10.23;6.25;;;;;;;20.68;35.88;100504.98;1739072;82;21004;-60
2022/04/16 00:25:34;;;;;;;7.60;5.92;;;;;;;20.67;35.87;100501.97;1738688;82;21883;-60
2022/04/16 00:28:04;;;;;;;8.73;5.60;;;;;;;20.66;35.88;100501.75;1739204;82;20964;-60
2022/04/16 00:30:37;;;;;;;9.20;5.87;;;;;;;20.68;35.89;100501.41;1739741;82;21982;-60
2022/04/16 00:33:02;;;;;;;8.38;5.70;;;;;;;20.67;35.89;100501.97;1739213;82;21022;-60
2022/04/16 00:35:29;;;;;;;8.73;5.87;;;;;;;20.65;35.89;100504.27;1739466;82;21462;-60
2022/04/16 00:37:55;;;;;;;10.13;5.78;;;;;;;20.66;35.90;100499.55;1739796;82;21109;-60
2022/04/16 00:40:22;;;;;;;8.78;5.70;;;;;;;20.66;35.90;100499.55;1739324;82;21739;-60
2022/04/16 00:42:50;;;;;;;11.00;6.53;;;;;;;20.67;35.91;100502.53;1740029;82;20975;-60
2022/04/16 00:45:15;;;;;;;8.88;6.58;;;;;;;20.65;35.92;100490.44;1739860;82;21266;-60
2022/04/16 00:47:42;;;;;;;9.35;6.17;;;;;;;20.67;35.89;100497.83;1739497;82;21370;-60
2022/04/16 00:50:09;;;;;;;9.43;6.05;;;;;;;20.67;35.91;100489.53;1739918;82;21111;-60
2022/04/16 00:52:37;;;;;;;8.90;5.83;;;;;;;20.65;35.91;100486.86;1739708;82;21063;-60
2022/04/16 00:55:05;;;;;;;9.08;6.30;;;;;;;20.67;35.94;100490.09;1739548;82;20995;-60
2022/04/16 00:57:31;;;;;;;10.65;6.80;;;;;;;20.65;35.91;100484.91;1739667;82;22080;-60
2022/04/16 00:59:57;;;;;;;8.65;6.67;;;;;;;20.65;35.91;100486.30;1740040;82;20995;-60
2022/04/16 01:02:23;;;;;;;8.58;6.22;;;;;;;20.65;35.93;100486.30;1739402;82;21273;-60
2022/04/16 01:04:49;;;;;;;8.40;5.85;;;;;;;20.65;35.93;100485.48;1739859;82;20892;-60
2022/04/16 01:07:24;;;;;;;8.15;5.72;;;;;;;20.65;35.93;100482.15;1739958;82;20983;-60
2022/04/16 01:09:50;;;;;;;7.97;6.03;;;;;;;20.64;35.92;100476.93;1739338;82;21364;-60
2022/04/16 01:12:16;;;;;;;7.80;5.87;;;;;;;20.64;35.95;100477.75;1739963;82;20873;-60
2022/04/16 01:14:42;;;;;;;8.25;5.60;;;;;;;20.64;35.92;100474.98;1741003;82;21530;-60
2022/04/16 01:17:09;;;;;;;8.50;6.22;;;;;;;20.64;35.93;100479.13;1747680;82;21014;-60
2022/04/16 01:19:40;;;;;;;9.53;6.10;;;;;;;20.64;35.95;100477.75;1747816;81;21001;-60
2022/04/16 01:22:07;;;;;;;9.10;6.28;;;;;;;20.64;35.95;100470.84;1748084;82;21998;-60
2022/04/16 01:24:37;;;;;;;10.35;6.70;;;;;;;20.65;35.95;100478.00;1747598;82;21086;-60
2022/04/16 01:27:01;;;;;;;8.85;6.10;;;;;;;20.63;35.97;100478.88;1746535;82;21722;-60
2022/04/16 01:29:27;;;;;;;8.10;6.00;;;;;;;20.64;35.98;100472.78;1722249;81;21083;-60
2022/04/16 01:31:53;;;;;;;8.80;5.80;;;;;;;20.63;35.96;100470.59;1713245;83;21031;-60
2022/04/16 01:34:20;;;;;;;8.68;5.95;;;;;;;20.63;35.98;100469.20;1713448;82;20924;-60
2022/04/16 01:36:46;;;;;;;8.95;6.15;;;;;;;20.63;35.98;100465.62;1713394;83;21532;-60
2022/04/16 01:39:12;;;;;;;9.28;6.37;;;;;;;20.63;35.97;100462.30;1713311;83;21868;-60
2022/04/16 01:41:40;;;;;;;8.25;6.17;;;;;;;20.62;36.00;100464.84;1713438;83;21338;-60
2022/04/16 01:44:07;;;;;;;10.65;6.03;;;;;;;20.63;35.99;100462.86;1713754;83;21315;-60
2022/04/16 01:46:33;;;;;;;8.53;5.92;;;;;;;20.62;35.98;100457.93;1713402;83;20960;-60
2022/04/16 01:48:59;;;;;;;8.78;5.60;;;;;;;20.62;36.00;100453.78;1713564;83;21495;-60
2022/04/16 01:51:25;;;;;;;11.08;6.30;;;;;;;20.63;36.00;100449.04;1713554;82;21113;-60
2022/04/16 01:53:51;;;;;;;10.28;6.33;;;;;;;20.63;36.01;100454.56;1713135;83;21109;-60
2022/04/16 01:56:17;;;;;;;10.03;6.60;;;;;;;20.62;36.03;100457.11;1713430;82;20908;-60
2022/04/16 01:58:44;;;;;;;8.93;6.42;;;;;;;20.62;36.03;100461.27;1713405;82;21027;-60
2022/04/16 02:01:16;;;;;;;8.73;6.42;;;;;;;20.61;36.04;100453.53;1713171;83;20976;-60
2022/04/16 02:03:42;;;;;;;8.13;5.85;;;;;;;20.61;36.03;100457.68;1713732;83;21721;-60
2022/04/16 02:06:08;;;;;;;8.75;6.10;;;;;;;20.61;36.04;100454.09;1713559;83;21058;-60
2022/04/16 02:08:34;;;;;;;10.43;5.85;;;;;;;20.61;36.07;100456.30;1712923;82;21034;-60
2022/04/16 02:11:00;;;;;;;9.03;6.28;;;;;;;20.62;36.07;100457.11;1713455;83;20998;-60
2022/04/16 02:13:26;;;;;;;7.78;6.10;;;;;;;20.62;36.07;100455.73;1713532;83;20979;-60
2022/04/16 02:15:52;;;;;;;9.33;6.28;;;;;;;20.61;36.10;100454.91;1699714;83;21347;-60
2022/04/16 02:18:18;;;;;;;8.80;5.97;;;;;;;20.61;36.07;100456.30;1685905;83;20960;-60
2022/04/16 02:20:44;;;;;;;9.68;6.75;;;;;;;20.61;36.07;100459.62;1685839;83;21500;-60
2022/04/16 02:23:10;;;;;;;7.90;6.00;;;;;;;20.62;36.08;100461.27;1686174;84;20908;-60
2022/04/16 02:25:36;;;;;;;9.48;6.12;;;;;;;20.60;36.07;100453.28;1686103;83;21341;-60
2022/04/16 02:28:03;;;;;;;7.97;5.55;;;;;;;20.61;36.08;100456.86;1695267;82;21095;-60
2022/04/16 02:30:30;;;;;;;8.65;6.42;;;;;;;20.60;36.09;100456.05;1739443;82;20884;-60
2022/04/16 02:32:56;;;;;;;8.88;6.25;;;;;;;20.60;36.09;100451.90;1739887;82;21122;-60
2022/04/16 02:35:23;;;;;;;8.43;6.47;;;;;;;20.60;36.08;100450.52;1739814;82;21070;-60
2022/04/16 02:37:49;;;;;;;9.98;6.42;;;;;;;20.60;36.08;100456.05;1739467;82;21070;-60
2022/04/16 02:40:21;;;;;;;9.33;6.83;;;;;;;20.59;36.08;100454.41;1739598;82;21273;-60
2022/04/16 02:42:47;;;;;;;10.32;6.58;;;;;;;20.59;36.08;100452.22;1739947;82;20990;-60
2022/04/16 02:47:59;;;;;;;8.95;6.15;;;;;;;20.58;36.09;100459.69;1739357;82;21400;-60
2022/04/16 02:50:27;;;;;;;9.23;6.40;;;;;;;20.59;36.08;100459.94;1739499;82;20940;-60
2022/04/16 02:52:55;;;;;;;8.63;6.45;;;;;;;20.58;36.07;100462.45;1739963;82;21760;-59
2022/04/16 02:55:22;;;;;;;9.05;5.85;;;;;;;20.59;36.08;100461.89;1740117;82;21329;-60
2022/04/16 02:57:51;;;;;;;9.13;5.83;;;;;;;20.59;36.09;100469.61;1739537;82;20988;-60
2022/04/16 03:00:19;;;;;;;8.78;7.03;;;;;;;20.58;36.08;100471.34;1739766;82;21029;-60
2022/04/16 03:02:45;;;;;;;9.25;6.78;;;;;;;20.59;36.08;100490.91;1740034;82;21059;-60
2022/04/16 03:05:11;;;;;;;8.78;6.53;;;;;;;20.59;36.06;100511.64;1739776;82;21169;-60
2022/04/16 03:07:37;;;;;;;9.93;6.97;;;;;;;20.59;36.06;100525.45;1739937;82;20943;-60
2022/04/16 03:10:05;;;;;;;8.90;6.53;;;;;;;20.59;36.05;100526.28;1739755;82;20967;-60
2022/04/16 03:12:49;;;;;;;9.40;6.90;;;;;;;20.59;36.08;100517.16;1739877;82;20959;-60
2022/04/16 03:18:01;;;;;;;11.60;6.12;;;;;;;20.58;36.07;100534.31;1747561;82;21388;-59
2022/04/16 03:20:29;;;;;;;8.55;6.40;;;;;;;20.58;36.07;100526.62;1747369;81;21014;-60
2022/04/16 03:22:55;;;;;;;11.43;7.17;;;;;;;20.58;36.08;100529.39;1747874;82;20920;-60
2022/04/16 03:25:22;;;;;;;8.73;6.90;;;;;;;20.57;36.08;100527.19;1747399;81;21636;-60
2022/04/16 03:27:48;;;;;;;9.15;6.53;;;;;;;20.57;36.09;100529.13;1748019;81;21057;-59
2022/04/16 03:30:14;;;;;;;9.48;7.10;;;;;;;20.58;36.09;100533.53;1752232;81;20984;-60
2022/04/16 03:32:40;;;;;;;10.03;6.62;;;;;;;20.57;36.12;100536.86;1752192;81;20991;-60
2022/04/16 03:35:08;;;;;;;8.75;6.87;;;;;;;20.57;36.13;100541.00;1752610;81;20968;-60
2022/04/16 03:37:35;;;;;;;9.08;6.62;;;;;;;20.56;36.14;100539.38;1752683;81;20992;-60
2022/04/16 03:40:01;;;;;;;7.33;5.87;;;;;;;20.56;36.11;100546.84;1751789;81;21016;-60
2022/04/16 03:42:27;;;;;;;9.03;6.92;;;;;;;20.57;36.12;100547.91;1752371;81;21117;-60
2022/04/16 03:44:53;;;;;;;9.15;6.78;;;;;;;20.56;36.13;100542.13;1751908;81;21549;-60
2022/04/16 03:47:19;;;;;;;8.05;6.53;;;;;;;20.56;36.15;100547.66;1752150;81;20913;-60
2022/04/16 03:49:45;;;;;;;10.25;7.20;;;;;;;20.55;36.16;100557.08;1752278;80;20983;-60
2022/04/16 03:52:11;;;;;;;11.10;7.22;;;;;;;20.55;36.16;100557.08;1752793;81;21425;-60
2022/04/16 04:00:13;;;;;;;10.75;6.85;;;;;;;20.55;36.17;100568.14;1751978;81;21334;-59
2022/04/16 04:02:39;;;;;;;11.48;6.80;;;;;;;20.55;36.15;100573.66;1752203;81;21339;-60
2022/04/16 04:05:06;;;;;;;10.40;6.67;;;;;;;20.54;36.15;100574.80;1752237;81;21000;-59
2022/04/16 04:07:38;;;;;;;10.58;7.30;;;;;;;20.54;36.17;100568.48;1752050;80;21203;-60
2022/04/16 04:10:06;;;;;;;9.58;6.72;;;;;;;20.54;36.17;100570.65;1752069;81;21008;-60
2022/04/16 04:12:32;;;;;;;9.60;6.70;;;;;;;20.53;36.18;100575.95;1752534;81;20932;-60
2022/04/16 04:14:59;;;;;;;9.58;6.50;;;;;;;20.54;36.20;100583.09;1752222;81;21029;-60
2022/04/16 04:17:25;;;;;;;8.48;6.78;;;;;;;20.53;36.19;100580.10;1752210;80;21028;-60
2022/04/16 04:19:51;;;;;;;9.95;6.90;;;;;;;20.53;36.21;100580.10;1752487;80;22294;-59
2022/04/16 04:22:17;;;;;;;9.30;6.33;;;;;;;20.53;36.21;100588.39;1752029;81;20948;-60
2022/04/16 04:24:45;;;;;;;11.00;6.50;;;;;;;20.53;36.21;100591.16;1752473;80;21044;-60
2022/04/16 04:27:11;;;;;;;9.33;6.97;;;;;;;20.54;36.22;100591.97;1752451;81;20976;-60
2022/04/16 04:29:43;;;;;;;10.15;6.80;;;;;;;20.53;36.22;100593.92;1749723;81;20994;-59
2022/04/16 04:32:09;;;;;;;11.88;6.95;;;;;;;20.54;36.22;100601.64;1749334;82;21730;-59
2022/04/16 04:34:35;;;;;;;12.13;7.33;;;;;;;20.54;36.18;100601.64;1749143;82;20953;-60
2022/04/16 04:37:02;;;;;;;9.85;6.62;;;;;;;20.54;36.17;100607.96;1749156;80;21058;-60
2022/04/16 04:39:28;;;;;;;8.45;6.30;;;;;;;20.54;36.20;100609.94;1749180;82;20976;-60
2022/04/16 04:41:54;;;;;;;10.10;7.03;;;;;;;20.54;36.17;100616.84;1749375;82;21800;-60
2022/04/16 04:44:20;;;;;;;9.53;6.37;;;;;;;20.54;36.17;100607.17;1749366;82;22056;-60
2022/04/16 04:46:46;;;;;;;8.00;6.95;;;;;;;20.54;36.18;100605.20;1749408;80;20961;-60
2022/04/16 04:49:13;;;;;;;9.58;6.25;;;;;;;20.54;36.16;100603.03;1749523;82;20943;-59
2022/04/16 04:51:39;;;;;;;7.85;6.33;;;;;;;20.54;36.15;100598.28;1749021;82;20930;-60
2022/04/16 04:54:06;;;;;;;9.45;6.60;;;;;;;20.54;36.15;100599.67;1749566;81;21008;-60
2022/04/16 04:56:34;;;;;;;8.83;6.67;;;;;;;20.55;36.15;100596.34;1749750;82;21303;-60
2022/04/16 04:59:00;;;;;;;8.08;6.50;;;;;;;20.55;36.15;100592.20;1749177;82;21040;-59
2022/04/16 05:01:26;;;;;;;10.05;6.75;;;;;;;20.55;36.14;100593.02;1749789;82;21049;-60
2022/04/16 05:03:52;;;;;;;9.35;7.37;;;;;;;20.56;36.14;100600.17;1749323;82;20882;-60
2022/04/16 05:06:18;;;;;;;8.55;6.60;;;;;;;20.56;36.14;100602.94;1749523;82;20898;-59
2022/04/16 05:08:44;;;;;;;10.90;6.78;;;;;;;20.56;36.15;100606.27;1749491;82;22003;-60
2022/04/16 05:11:12;;;;;;;10.43;6.50;;;;;;;20.56;36.12;100600.17;1749797;82;20934;-60
2022/04/16 05:13:38;;;;;;;10.93;6.80;;;;;;;20.56;36.12;100604.32;1748531;81;20937;-60
2022/04/16 05:16:05;;;;;;;8.00;6.42;;;;;;;20.57;36.12;100615.63;1748166;82;21132;-60
2022/04/16 05:18:31;;;;;;;10.95;6.80;;;;;;;20.57;36.10;100610.66;1741522;82;21356;-60
2022/04/16 05:20:57;;;;;;;9.70;6.67;;;;;;;20.57;36.10;100607.91;1741371;81;21163;-60
2022/04/16 05:23:24;;;;;;;8.38;6.05;;;;;;;20.56;36.10;100608.47;1741589;82;20858;-60
2022/04/16 05:25:51;;;;;;;9.48;6.45;;;;;;;20.58;36.10;100613.69;1741546;81;21382;-60
2022/04/16 05:28:17;;;;;;;8.03;6.20;;;;;;;20.56;36.11;100610.41;1742530;80;20965;-59
2022/04/16 05:30:54;;;;;;;8.75;6.40;;;;;;;20.57;36.10;100607.34;1746870;82;21087;-59
2022/04/16 05:36:00;;;;;;;9.15;6.10;;;;;;;20.56;36.14;100602.94;1746464;82;21535;-59
2022/04/16 05:38:26;;;;;;;9.23;6.72;;;;;;;20.55;36.11;100605.45;1746911;82;20937;-60
2022/04/16 05:40:52;;;;;;;10.78;6.30;;;;;;;20.56;36.11;100613.17;1746879;82;21159;-59
2022/04/16 05:43:19;;;;;;;9.23;6.53;;;;;;;20.55;36.13;100613.74;1746629;82;20993;-60
2022/04/16 05:45:45;;;;;;;7.05;5.70;;;;;;;20.56;36.15;100612.61;1746577;82;21863;-60
2022/04/16 05:48:11;;;;;;;10.13;6.50;;;;;;;20.55;36.14;100608.22;1746497;82;20886;-60
2022/04/16 05:50:37;;;;;;;8.98;5.97;;;;;;;20.56;36.14;100607.09;1746463;82;21007;-60
2022/04/16 05:53:06;;;;;;;9.25;6.90;;;;;;;20.57;36.16;100607.34;1746765;82;20972;-60
2022/04/16 05:55:34;;;;;;;7.92;5.58;;;;;;;20.57;36.15;100603.19;1746524;80;20965;-60
2022/04/16 05:58:00;;;;;;;7.80;6.35;;;;;;;20.57;36.16;100602.38;1746562;82;21112;-60
2022/04/16 06:00:33;;;;;;;7.83;6.22;;;;;;;20.57;36.16;100596.84;1718687;82;21283;-59
2022/04/16 06:02:59;;;;;;;8.55;6.40;;;;;;;20.58;36.15;100599.27;1746990;82;20929;-60
2022/04/16 06:05:27;;;;;;;11.85;6.37;;;;;;;20.57;36.16;100594.91;1746746;82;21012;-60
2022/04/16 06:07:53;;;;;;;8.65;6.45;;;;;;;20.57;36.15;100601.81;1746872;82;21458;-60
2022/04/16 06:10:19;;;;;;;8.73;5.80;;;;;;;20.58;36.16;100595.12;1717354;82;21259;-60
2022/04/16 06:12:45;;;;;;;8.33;6.03;;;;;;;20.58;36.17;100591.57;1746321;82;21536;-60
2022/04/16 06:15:11;;;;;;;9.13;6.37;;;;;;;20.58;36.19;100588.22;1746681;82;20945;-60
2022/04/16 06:17:37;;;;;;;7.33;5.50;;;;;;;20.58;36.20;100588.22;1750252;81;21579;-60
2022/04/16 06:20:06;;;;;;;8.58;6.00;;;;;;;20.58;36.20;100603.41;1751867;80;20913;-60
2022/04/16 06:22:33;;;;;;;10.98;6.20;;;;;;;20.58;36.19;100596.50;1752680;81;21382;-60
2022/04/16 06:24:59;;;;;;;8.58;6.30;;;;;;;20.58;36.17;100597.89;1751917;81;21011;-59
2022/04/16 06:27:25;;;;;;;6.83;6.00;;;;;;;20.59;36.19;100600.91;1745483;81;21024;-60
2022/04/16 06:29:51;;;;;;;8.35;6.03;;;;;;;20.60;36.18;100605.87;1744385;82;21360;-60
2022/04/16 06:32:17;;;;;;;7.45;5.55;;;;;;;20.60;36.19;100603.10;1747886;82;21067;-60
2022/04/16 06:34:44;;;;;;;7.20;5.45;;;;;;;20.60;36.18;100601.72;1747760;82;21320;-59
2022/04/16 06:37:10;;;;;;;6.60;5.60;;;;;;;20.60;36.17;100596.19;1747882;82;21437;-60
2022/04/16 06:39:36;;;;;;;8.03;5.85;;;;;;;20.60;36.17;100595.63;1747535;82;20947;-60
2022/04/16 06:42:02;;;;;;;9.10;6.15;;;;;;;20.61;36.17;100602.80;1747649;82;20896;-60
2022/04/16 06:44:29;;;;;;;9.00;5.70;;;;;;;20.61;36.15;100606.13;1748201;82;21382;-60
2022/04/16 06:46:55;;;;;;;8.40;5.70;;;;;;;20.61;36.17;100605.56;1747673;82;21552;-60
2022/04/16 06:49:21;;;;;;;9.50;5.67;;;;;;;20.61;36.17;100604.73;1747433;82;21403;-60
2022/04/16 06:51:47;;;;;;;8.78;5.92;;;;;;;20.61;36.17;100605.56;1747661;82;20935;-60
2022/04/16 06:54:13;;;;;;;10.63;5.62;;;;;;;20.61;36.15;100611.09;1747987;81;20999;-59
2022/04/16 06:56:40;;;;;;;9.10;5.30;;;;;;;20.62;36.17;100620.20;1747471;82;21508;-59
2022/04/16 06:59:06;;;;;;;8.33;5.05;;;;;;;20.61;36.15;100619.38;1748196;82;21835;-60
2022/04/16 07:01:32;;;;;;;8.68;5.70;;;;;;;20.61;36.15;100613.03;1747960;82;21494;-59
2022/04/16 07:03:58;;;;;;;7.53;5.35;;;;;;;20.61;36.17;100612.47;1747548;82;20951;-60
2022/04/16 07:06:24;;;;;;;7.55;5.72;;;;;;;20.62;36.16;100607.19;1723290;81;20948;-59
2022/04/16 07:08:50;;;;;;;9.25;5.35;;;;;;;20.62;36.18;100607.19;1717122;82;21048;-59
2022/04/16 07:11:16;;;;;;;5.87;5.00;;;;;;;20.62;36.18;100608.58;1717107;82;21119;-60
2022/04/16 07:13:42;;;;;;;10.13;5.78;;;;;;;20.62;36.15;100604.99;1717180;82;20900;-59
2022/04/16 07:16:08;;;;;;;6.70;5.00;;;;;;;20.63;36.17;100601.88;1718080;82;20920;-60
2022/04/16 07:18:34;;;;;;;8.05;5.67;;;;;;;20.63;36.17;100593.59;1717256;82;21065;-60
2022/04/16 07:21:00;;;;;;;5.37;4.80;;;;;;;20.64;36.17;100595.23;1718024;83;21034;-60
2022/04/16 07:23:26;;;;;;;8.95;5.40;;;;;;;20.64;36.20;100593.84;1717198;83;21046;-60
2022/04/16 07:25:52;;;;;;;5.67;4.42;;;;;;;20.64;36.24;100601.32;1717215;83;20904;-60
2022/04/16 07:28:21;;;;;;;6.37;4.92;;;;;;;20.66;36.23;100605.41;1726534;81;20975;-59
2022/04/16 07:30:49;;;;;;;7.20;5.45;;;;;;;20.66;36.25;100596.30;1752276;81;21334;-60
2022/04/16 07:33:16;;;;;;;6.40;4.95;;;;;;;20.67;36.25;100613.11;1751721;81;21459;-60
2022/04/16 07:35:42;;;;;;;7.67;4.80;;;;;;;20.68;36.28;100611.98;1752235;80;21310;-60
2022/04/16 07:38:08;;;;;;;6.35;4.85;;;;;;;20.68;36.28;100611.98;1752191;81;20948;-60
2022/04/16 07:40:34;;;;;;;6.65;5.03;;;;;;;20.69;36.31;100618.58;1751849;81;20896;-60
2022/04/16 07:43:01;;;;;;;6.65;4.78;;;;;;;20.68;36.30;100611.98;1752419;81;20973;-60
2022/04/16 07:45:28;;;;;;;6.25;5.17;;;;;;;20.69;36.30;100603.37;1752286;81;21308;-60
2022/04/16 07:47:54;;;;;;;5.85;4.37;;;;;;;20.69;36.31;100590.93;1751945;80;21719;-59
2022/04/16 07:50:21;;;;;;;5.90;4.40;;;;;;;20.69;36.31;100599.23;1752309;81;20900;-60
2022/04/16 07:52:47;;;;;;;7.37;4.75;;;;;;;20.71;36.31;100605.23;1752362;81;20925;-60
2022/04/16 07:55:14;;;;;;;6.10;4.58;;;;;;;20.71;36.34;100615.50;1751998;81;20850;-60
2022/04/16 07:57:40;;;;;;;5.60;4.58;;;;;;;20.71;36.34;100625.97;1752212;81;20959;-60
2022/04/16 08:00:08;;;;;;;6.20;4.83;;;;;;;20.72;36.35;100626.78;1752311;81;21285;-60
2022/04/16 08:02:34;;;;;;;8.00;5.35;;;;;;;20.73;36.36;100640.86;1752032;81;20936;-60
2022/04/16 08:05:00;;;;;;;6.42;4.60;;;;;;;20.72;36.36;100645.57;1752533;80;20945;-60
2022/04/16 08:07:26;;;;;;;7.17;5.17;;;;;;;20.73;36.38;100645.00;1752533;81;20960;-60
2022/04/16 08:09:52;;;;;;;5.12;4.50;;;;;;;20.74;36.36;100636.96;1752213;81;20956;-60
2022/04/16 08:12:18;;;;;;;6.72;4.80;;;;;;;20.74;36.35;100631.44;1752306;81;21285;-60
2022/04/16 08:14:44;;;;;;;6.33;4.85;;;;;;;20.76;36.38;100640.20;1752564;81;20972;-60
2022/04/16 08:17:10;;;;;;;5.95;4.65;;;;;;;20.75;36.38;100644.92;1750998;80;20976;-60
2022/04/16 08:19:36;;;;;;;5.10;4.37;;;;;;;20.76;36.38;100649.88;1746711;80;20913;-60
2022/04/16 08:22:07;;;;;;;6.62;4.08;;;;;;;20.75;36.39;100646.30;1746805;80;21461;-60
2022/04/16 08:24:41;;;;;;;;;;;;;;;20.75;36.40;100635.23;1749039;82;21135;-60
2022/04/16 08:27:07;;;;;;;7.75;4.75;;;;;;;20.76;36.41;100621.67;1746699;82;21546;-60
2022/04/16 08:29:34;;;;;;;6.12;4.60;;;;;;;20.76;36.37;100627.77;1744701;82;20963;-59
2022/04/16 08:32:01;;;;;;;5.85;4.50;;;;;;;20.76;36.38;100618.91;1744954;82;20968;-60
2022/04/16 08:34:29;;;;;;;5.97;4.60;;;;;;;20.76;36.39;100624.44;1744968;82;21038;-60
2022/04/16 08:36:55;;;;;;;6.50;4.72;;;;;;;20.77;36.40;100611.42;1745405;82;20994;-60
2022/04/16 08:39:21;;;;;;;5.78;4.65;;;;;;;20.76;36.44;100616.14;1744589;82;20955;-60
2022/04/16 08:41:48;;;;;;;6.08;4.28;;;;;;;20.77;36.42;100619.16;1745258;82;20994;-60
2022/04/16 08:44:19;;;;;;;6.10;4.62;;;;;;;20.78;36.45;100610.30;1745248;82;21392;-60
2022/04/16 08:46:42;;;;;;;6.78;4.95;;;;;;;20.76;36.47;100606.46;1744703;82;21349;-60
2022/04/16 08:49:09;;;;;;;6.25;4.70;;;;;;;20.77;36.47;100607.28;1744818;81;21125;-60
2022/04/16 08:51:35;;;;;;;6.22;4.65;;;;;;;20.78;36.47;100605.59;1745230;82;20931;-60
2022/04/16 08:54:01;;;;;;;6.85;4.67;;;;;;;20.77;36.47;100608.66;1744872;82;21236;-60
2022/04/16 08:56:28;;;;;;;5.25;4.20;;;;;;;20.77;36.47;100609.48;1745263;82;20980;-60
2022/04/16 08:58:54;;;;;;;6.25;4.90;;;;;;;20.78;36.46;100607.53;1745340;82;21423;-60
2022/04/16 09:01:20;;;;;;;6.67;4.95;;;;;;;20.78;36.47;100595.09;1744931;82;22197;-60
2022/04/16 09:03:48;;;;;;;6.00;4.45;;;;;;;20.78;36.48;100582.65;1745433;82;20928;-59
2022/04/16 09:06:23;;;;;;;5.62;4.62;;;;;;;20.78;36.48;100561.91;1745371;82;21006;-60
2022/04/16 09:08:49;;;;;;;6.65;4.33;;;;;;;20.77;36.50;100531.25;1745076;82;21417;-60
2022/04/16 09:11:23;;;;;;;5.97;4.30;;;;;;;20.77;36.48;100544.51;1745364;82;20939;-60
2022/04/16 09:13:53;;;;;;;6.87;4.33;;;;;;;20.77;36.50;100562.48;1744344;82;21349;-60
2022/04/16 09:16:20;;;;;;;5.03;4.33;;;;;;;20.77;36.48;100571.34;1744956;81;20955;-60
2022/04/16 09:18:51;;;;;;;4.92;4.33;;;;;;;20.78;36.48;100571.02;1741404;82;20971;-60
2022/04/16 09:21:22;;;;;;;6.55;4.53;;;;;;;20.77;36.48;100562.48;1739956;82;21381;-60
2022/04/16 09:23:52;;;;;;;6.47;4.58;;;;;;;20.77;36.48;100563.05;1739723;82;20983;-60
2022/04/16 09:26:32;;;;;;;5.93;4.47;;;;;;;20.76;36.52;100555.31;1740491;82;22230;-60
2022/04/16 09:29:12;;;;;;;5.73;4.33;;;;;;;20.76;36.51;100553.94;1743398;82;21452;-60
2022/04/16 09:31:43;;;;;;;5.63;4.70;;;;;;;20.76;36.53;100561.41;1720171;82;21476;-60
2022/04/16 09:34:23;;;;;;;5.92;4.53;;;;;;;20.76;36.54;100568.32;1746928;80;21119;-60
2022/04/16 09:36:50;;;;;;;5.90;4.08;;;;;;;20.75;36.55;100564.73;1747000;80;21099;-60
2022/04/16 09:39:16;;;;;;;6.12;4.42;;;;;;;20.74;36.55;100565.90;1746715;82;21728;-60
2022/04/16 09:41:46;;;;;;;6.35;4.58;;;;;;;20.74;36.58;100567.28;1746708;82;20897;-60
2022/04/16 09:44:28;;;;;;;6.42;4.37;;;;;;;20.75;36.56;100560.59;1746981;82;21317;-60
2022/04/16 09:46:53;;;;;;;5.85;4.20;;;;;;;20.75;36.59;100574.41;1745491;80;21412;-60
2022/04/16 09:49:19;;;;;;;5.47;4.15;;;;;;;20.75;36.56;100570.27;1746799;82;20890;-60
2022/04/16 09:51:46;;;;;;;7.25;4.78;;;;;;;20.75;36.60;100574.41;1746535;82;20940;-60
2022/04/16 09:54:13;;;;;;;7.28;4.75;;;;;;;20.75;36.58;100567.50;1746387;82;20956;-60
2022/04/16 09:56:41;;;;;;;5.08;3.98;;;;;;;20.76;36.56;100555.31;1746644;82;21582;-60
2022/04/16 09:59:09;;;;;;;6.75;4.45;;;;;;;20.76;36.60;100548.97;1746482;82;20976;-60
2022/04/16 10:01:42;;;;;;;5.83;4.22;;;;;;;20.76;36.59;100551.17;1746267;82;20985;-60
2022/04/16 10:04:08;;;;;;;4.45;3.98;;;;;;;20.77;36.61;100551.42;1746716;82;21477;-59
2022/04/16 10:06:34;;;;;;;5.08;4.22;;;;;;;20.77;36.60;100546.45;1746712;82;20932;-60
2022/04/16 10:09:13;;;;;;;5.70;4.50;;;;;;;20.78;36.60;100546.14;1746580;80;20921;-60
2022/04/16 10:14:19;;;;;;;6.17;4.72;;;;;;;20.78;36.58;100551.67;1709312;82;21033;-60
2022/04/16 10:17:09;;;;;;;5.80;4.08;;;;;;;20.78;36.58;100545.33;1746856;82;21097;-60
2022/04/16 10:19:48;;;;;;;5.55;3.95;;;;;;;20.79;36.57;100542.81;1746464;81;20960;-60
2022/04/16 10:22:27;;;;;;;6.67;4.12;;;;;;;20.79;36.53;100535.90;1746333;82;20980;-60
2022/04/16 10:24:57;;;;;;;4.97;3.85;;;;;;;20.78;36.53;100533.70;1746925;82;21275;-60
2022/04/16 10:27:25;;;;;;;6.12;4.42;;;;;;;20.79;36.52;100524.24;1746988;82;21035;-59
2022/04/16 10:29:51;;;;;;;4.50;3.70;;;;;;;20.78;36.51;100518.49;1744295;81;21178;-60
2022/04/16 10:32:18;;;;;;;5.53;3.98;;;;;;;20.78;36.52;100519.88;1744718;82;21367;-60
2022/04/16 10:34:45;;;;;;;6.03;3.92;;;;;;;20.79;36.53;100519.31;1744744;81;20991;-60
2022/04/16 10:37:22;;;;;;;5.05;4.00;;;;;;;20.79;36.52;100522.86;1745056;82;20959;-61
2022/04/16 10:39:53;;;;;;;5.60;4.17;;;;;;;20.79;36.53;100522.86;1744873;82;21048;-61
2022/04/16 10:42:32;;;;;;;4.80;4.28;;;;;;;20.79;36.54;100511.80;1744914;82;21252;-61
2022/04/16 10:45:09;;;;;;;6.65;4.37;;;;;;;20.79;36.54;100511.80;1744666;82;21036;-61
2022/04/16 10:47:38;;;;;;;5.15;4.35;;;;;;;20.80;36.54;100512.05;1745232;82;20951;-61
2022/04/16 10:50:14;;;;;;;5.15;4.17;;;;;;;20.81;36.55;100522.55;1715876;82;21314;-61
2022/04/16 10:52:40;;;;;;;5.70;4.42;;;;;;;20.80;36.54;100523.11;1745214;82;21014;-61
2022/04/16 10:55:07;;;;;;;5.15;4.08;;;;;;;20.81;36.56;100534.42;1691718;82;21729;-61
2022/04/16 10:57:34;;;;;;;6.22;4.20;;;;;;;20.80;36.57;100518.97;1745217;82;21031;-61
2022/04/16 11:00:14;;;;;;;5.67;4.67;;;;;;;20.81;36.56;100514.25;1716018;82;20951;-61
2022/04/16 11:02:40;;;;;;;6.08;4.10;;;;;;;20.81;36.59;100510.10;1745147;82;21490;-61
2022/04/16 11:05:10;;;;;;;5.20;4.17;;;;;;;20.81;36.59;100517.83;1745186;82;20978;-61
2022/04/16 11:07:39;;;;;;;6.22;4.58;;;;;;;20.81;36.58;100517.83;1745224;82;21663;-61
2022/04/16 11:10:10;;;;;;;6.75;4.22;;;;;;;20.82;36.58;100522.80;1744236;82;20983;-61
2022/04/16 11:12:37;;;;;;;7.15;4.37;;;;;;;20.82;36.58;100515.32;1744704;82;20951;-61
2022/04/16 11:15:15;;;;;;;5.28;3.90;;;;;;;20.83;36.58;100518.90;1744730;82;21431;-61
2022/04/16 11:17:41;;;;;;;5.12;4.05;;;;;;;20.83;36.57;100507.27;1745024;81;21018;-61
2022/04/16 11:20:09;;;;;;;5.65;4.28;;;;;;;20.83;36.61;100507.84;1718157;82;21312;-61
2022/04/16 11:22:35;;;;;;;5.30;4.50;;;;;;;20.83;36.61;100501.75;1718048;82;21008;-61
2022/04/16 11:25:07;;;;;;;4.92;4.10;;;;;;;20.83;36.63;100505.08;1699346;83;21338;-61
2022/04/16 11:35:59;;;;;;;6.55;4.22;;;;;;;20.84;36.61;100495.62;1689987;84;21202;-61
2022/04/16 11:38:29;;;;;;;4.50;4.00;;;;;;;20.84;36.59;100491.47;1690359;84;21026;-61
2022/04/16 11:41:04;;;;;;;7.65;4.22;;;;;;;20.84;36.62;100491.47;1690257;84;20962;-61
2022/04/16 11:43:31;;;;;;;4.87;4.05;;;;;;;20.85;36.61;100488.95;1690741;84;21036;-61
2022/04/16 11:46:00;;;;;;;4.65;3.70;;;;;;;20.85;36.61;100489.77;1690629;84;21848;-61
2022/04/16 11:48:26;;;;;;;5.58;4.60;;;;;;;20.86;36.64;100496.12;1690183;83;21719;-60
2022/04/16 11:50:52;;;;;;;4.97;4.10;;;;;;;20.85;36.64;100489.77;1690706;83;21393;-61